createdAt,value
2019-02-17T00:04:30.476Z,39.47
2019-02-17T00:09:32.728Z,38.13
2019-02-17T00:14:34.293Z,37.40
2019-02-17T00:19:35.933Z,37.70
2019-02-17T00:24:37.581Z,37.53
2019-02-17T00:29:39.137Z,39.40
2019-02-17T00:34:40.711Z,38.37
2019-02-17T00:39:42.305Z,37.43
2019-02-17T00:44:44.006Z,39.20
2019-02-17T00:49:45.612Z,38.27
2019-02-17T00:54:47.191Z,38.27
2019-02-17T00:59:48.791Z,37.93
2019-02-17T01:04:50.333Z,36.77
2019-02-17T01:09:51.973Z,35.57
2019-02-17T01:14:54.018Z,37.77
2019-02-17T01:19:56.078Z,36.13
2019-02-17T01:24:57.716Z,36.00
2019-02-17T01:29:59.278Z,37.07
2019-02-17T01:35:00.935Z,35.87
2019-02-17T01:40:03.291Z,36.63
2019-02-17T01:45:05.469Z,32.90
2019-02-17T01:50:07.340Z,36.63
2019-02-17T01:55:09.054Z,32.90
2019-02-17T02:00:10.899Z,33.80
2019-02-17T02:05:12.464Z,34.87
2019-02-17T02:10:14.061Z,35.17
2019-02-17T02:15:15.612Z,36.63
2019-02-17T02:20:19.515Z,35.60
2019-02-17T02:25:21.101Z,35.57
2019-02-17T02:30:23.254Z,34.03
2019-02-17T02:35:24.846Z,32.17
2019-02-17T02:40:26.820Z,33.10
2019-02-17T02:45:28.382Z,33.00
2019-02-17T02:50:29.961Z,30.87
2019-02-17T02:55:31.526Z,31.20
2019-02-17T03:00:33.122Z,32.87
2019-02-17T03:05:35.488Z,32.93
2019-02-17T03:10:37.206Z,34.37
2019-02-17T03:15:38.825Z,34.33
2019-02-17T03:20:40.509Z,36.93
2019-02-17T03:25:45.171Z,33.73
2019-02-17T03:30:46.369Z,36.73
2019-02-17T03:35:48.589Z,34.73
2019-02-17T03:40:50.878Z,33.63
2019-02-17T03:45:52.543Z,33.90
2019-02-17T03:50:54.154Z,33.17
2019-02-17T03:55:56.124Z,32.70
2019-02-17T04:00:58.000Z,33.73
2019-02-17T04:05:59.595Z,33.67
2019-02-17T04:11:01.143Z,34.53
2019-02-17T04:16:02.704Z,34.70
2019-02-17T04:21:04.313Z,33.13
2019-02-17T04:26:05.857Z,35.13
2019-02-17T04:31:07.438Z,34.23
2019-02-17T04:36:09.019Z,32.90
2019-02-17T04:41:11.023Z,32.30
2019-02-17T04:46:12.623Z,32.97
2019-02-17T04:51:14.192Z,33.40
2019-02-17T04:56:16.184Z,32.37
2019-02-17T05:01:17.767Z,34.47
2019-02-17T05:06:19.433Z,33.87
2019-02-17T05:11:21.006Z,32.93
2019-02-17T05:16:22.792Z,31.53
2019-02-17T05:21:24.326Z,32.50
2019-02-17T05:26:26.267Z,32.60
2019-02-17T05:31:27.835Z,33.40
2019-02-17T05:36:29.398Z,32.90
2019-02-17T05:41:30.982Z,31.63
2019-02-17T05:46:32.934Z,31.90
2019-02-17T05:51:34.928Z,31.77
2019-02-17T05:56:36.485Z,32.90
2019-02-17T06:01:38.094Z,31.10
2019-02-17T06:06:39.646Z,31.87
2019-02-17T06:11:41.696Z,31.27
2019-02-17T06:16:43.323Z,31.63
2019-02-17T06:21:44.947Z,32.20
2019-02-17T06:26:46.555Z,31.47
2019-02-17T06:31:48.140Z,30.60
2019-02-17T06:36:49.767Z,32.27
2019-02-17T06:41:51.354Z,30.60
2019-02-17T06:46:53.014Z,31.77
2019-02-17T06:51:55.069Z,31.40
2019-02-17T06:56:56.696Z,29.47
2019-02-17T07:01:58.355Z,29.70
2019-02-17T07:07:00.315Z,28.63
2019-02-17T07:12:01.979Z,28.87
2019-02-17T07:17:03.571Z,28.77
2019-02-17T07:22:05.216Z,28.00
2019-02-17T07:27:06.782Z,27.23
2019-02-17T07:32:08.702Z,26.50
2019-02-17T07:37:10.654Z,27.80
2019-02-17T07:42:12.362Z,26.40
2019-02-17T07:47:14.397Z,27.03
2019-02-17T07:52:16.285Z,26.50
2019-02-17T07:57:17.908Z,26.97
2019-02-17T08:02:19.558Z,27.97
2019-02-17T08:07:22.089Z,26.33
2019-02-17T08:12:23.698Z,26.80
2019-02-17T08:17:25.259Z,25.40
2019-02-17T08:22:26.865Z,26.57
2019-02-17T08:27:28.497Z,27.60
2019-02-17T08:32:30.154Z,27.23
2019-02-17T08:37:32.159Z,26.73
2019-02-17T08:42:33.780Z,27.13
2019-02-17T08:47:35.367Z,27.97
2019-02-17T08:52:37.376Z,28.57
2019-02-17T08:57:39.122Z,28.70
2019-02-17T09:02:41.056Z,27.80
2019-02-17T09:07:42.665Z,27.27
2019-02-17T09:12:44.286Z,26.77
2019-02-17T09:17:46.977Z,29.30
2019-02-17T09:22:48.549Z,26.23
2019-02-17T09:27:50.129Z,26.90
2019-02-17T09:32:51.735Z,26.73
2019-02-17T09:37:53.517Z,27.37
2019-02-17T09:42:55.138Z,25.53
2019-02-17T09:47:57.153Z,25.40
2019-02-17T09:52:58.869Z,25.17
2019-02-17T09:58:00.589Z,25.10
2019-02-17T10:03:02.254Z,25.13
2019-02-17T10:08:03.891Z,26.43
2019-02-17T10:13:05.560Z,26.40
2019-02-17T10:18:07.153Z,27.07
2019-02-17T10:23:08.910Z,25.87
2019-02-17T10:28:10.518Z,26.70
2019-02-17T10:33:12.135Z,27.30
2019-02-17T10:38:14.001Z,29.07
2019-02-17T10:43:15.597Z,24.80
2019-02-17T10:48:17.241Z,24.47
2019-02-17T10:53:19.239Z,26.07
2019-02-17T10:58:20.799Z,24.30
2019-02-17T11:03:22.514Z,26.23
2019-02-17T11:08:24.103Z,24.57
2019-02-17T11:13:25.705Z,23.57
2019-02-17T11:18:27.246Z,26.23
2019-02-17T11:23:29.232Z,23.57
2019-02-17T11:28:30.949Z,25.37
2019-02-17T11:33:32.523Z,23.67
2019-02-17T11:38:34.225Z,24.33
2019-02-17T11:43:35.809Z,24.80
2019-02-17T11:48:37.783Z,24.43
2019-02-17T11:53:39.432Z,24.93
2019-02-17T11:58:41.184Z,24.83
2019-02-17T12:03:42.768Z,24.40
2019-02-17T12:08:46.091Z,23.83
2019-02-17T12:13:49.967Z,23.13
2019-02-17T12:18:51.578Z,24.33
2019-02-17T12:23:53.290Z,26.05
2019-02-17T12:28:54.900Z,25.90
2019-02-17T12:33:56.711Z,24.07
2019-02-17T12:39:00.732Z,23.73
2019-02-17T12:44:02.399Z,23.00
2019-02-17T12:49:05.552Z,22.20
2019-02-17T12:54:07.164Z,21.63
2019-02-17T12:59:08.801Z,22.17
2019-02-17T13:04:10.424Z,22.73
2019-02-17T13:09:12.064Z,21.80
2019-02-17T13:14:13.733Z,22.35
2019-02-17T13:19:15.369Z,21.75
2019-02-17T13:24:17.036Z,21.90
2019-02-17T13:29:18.614Z,22.20
2019-02-17T13:34:20.758Z,22.00
2019-02-17T13:39:22.923Z,21.65
2019-02-17T13:44:24.511Z,22.77
2019-02-17T13:49:26.115Z,22.15
2019-02-17T13:54:27.693Z,21.82
2019-02-17T13:59:29.370Z,20.35
2019-02-17T14:04:30.945Z,19.85
2019-02-17T14:09:33.440Z,20.35
2019-02-17T14:14:35.502Z,19.52
2019-02-17T14:19:37.062Z,20.08
2019-02-17T14:24:38.713Z,20.55
2019-02-17T14:29:40.411Z,19.82
2019-02-17T14:34:42.028Z,18.70
2019-02-17T14:39:43.625Z,17.80
2019-02-17T14:44:45.278Z,17.50
2019-02-17T14:49:47.465Z,17.95
2019-02-17T14:54:49.440Z,20.50
2019-02-17T14:59:51.026Z,19.05
2019-02-17T15:04:52.778Z,17.90
2019-02-17T15:09:54.370Z,19.48
2019-02-17T15:14:56.047Z,18.95
2019-02-17T15:19:57.985Z,18.07
2019-02-17T15:24:59.589Z,18.05
2019-02-17T15:30:01.307Z,18.05
2019-02-17T15:35:04.002Z,16.90
2019-02-17T15:40:06.143Z,16.80
2019-02-17T15:45:08.232Z,17.73
2019-02-17T15:50:10.988Z,18.30
2019-02-17T15:55:12.695Z,19.00
2019-02-17T16:00:14.429Z,18.55
2019-02-17T16:05:16.170Z,18.62
2019-02-17T16:10:18.150Z,21.05
2019-02-17T16:15:19.771Z,19.80
2019-02-17T16:20:21.505Z,18.70
2019-02-17T16:25:24.982Z,18.73
2019-02-17T16:30:26.578Z,20.10
2019-02-17T16:35:28.234Z,19.83
2019-02-17T16:40:29.807Z,18.17
2019-02-17T16:45:31.427Z,17.40
2019-02-17T16:50:33.021Z,14.67
2019-02-17T16:55:34.728Z,14.83
2019-02-17T17:00:36.281Z,15.70
2019-02-17T17:05:37.868Z,16.37
2019-02-17T17:10:39.668Z,16.93
2019-02-17T17:15:41.542Z,16.63
2019-02-17T17:20:44.052Z,15.07
2019-02-17T17:25:46.638Z,16.60
2019-02-17T17:30:48.272Z,17.63
2019-02-17T17:35:49.881Z,17.33
2019-02-17T17:40:52.291Z,18.80
2019-02-17T17:45:53.921Z,16.67
2019-02-17T17:50:56.089Z,15.83
2019-02-17T17:55:57.789Z,15.50
2019-02-17T18:01:00.513Z,14.13
2019-02-17T18:06:02.210Z,14.37
2019-02-17T18:11:03.840Z,15.20
2019-02-17T18:16:05.827Z,15.40
2019-02-17T18:21:07.491Z,17.13
2019-02-17T18:26:09.210Z,17.10
2019-02-17T18:31:11.228Z,15.00
2019-02-17T18:36:12.862Z,14.20
2019-02-17T18:41:16.697Z,14.77
2019-02-17T18:46:18.380Z,13.90
2019-02-17T18:51:20.094Z,14.27
2019-02-17T18:56:21.675Z,13.93
2019-02-17T19:01:23.664Z,14.17
2019-02-17T19:06:25.255Z,12.90
2019-02-17T19:11:26.982Z,13.27
2019-02-17T19:16:28.731Z,12.67
2019-02-17T19:21:30.733Z,12.53
2019-02-17T19:26:32.368Z,13.67
2019-02-17T19:31:34.029Z,13.03
2019-02-17T19:36:35.575Z,14.13
2019-02-17T19:41:37.184Z,14.33
2019-02-17T19:46:38.872Z,14.77
2019-02-17T19:51:40.483Z,18.27
2019-02-17T19:56:42.105Z,22.33
2019-02-17T20:01:43.673Z,16.07
2019-02-17T20:06:45.733Z,15.40
2019-02-17T20:11:47.367Z,15.97
2019-02-17T20:16:48.941Z,16.27
2019-02-17T20:21:50.796Z,16.47
2019-02-17T20:26:52.359Z,16.13
2019-02-17T20:31:53.934Z,16.20
2019-02-17T20:36:56.051Z,17.17
2019-02-17T20:41:58.871Z,18.13
2019-02-17T20:47:00.441Z,15.83
2019-02-17T20:52:02.003Z,15.13
2019-02-17T20:57:03.664Z,15.73
2019-02-17T21:02:05.746Z,18.43
2019-02-17T21:07:07.619Z,20.93
2019-02-17T21:12:10.517Z,19.83
2019-02-17T21:17:12.196Z,20.00
2019-02-17T21:22:13.874Z,20.00
2019-02-17T21:27:20.002Z,19.87
2019-02-17T21:32:21.636Z,21.47
2019-02-17T21:37:23.626Z,17.27
2019-02-17T21:42:25.211Z,20.30
2019-02-17T21:47:26.954Z,20.57
2019-02-17T21:52:29.024Z,20.20
2019-02-17T21:57:30.715Z,17.03
2019-02-17T22:02:32.379Z,16.33
2019-02-17T22:07:35.107Z,15.23
2019-02-17T22:12:37.077Z,15.47
2019-02-17T22:17:38.807Z,15.73
2019-02-17T22:22:40.504Z,15.17
2019-02-17T22:27:43.055Z,14.83
2019-02-17T22:32:44.614Z,15.07
2019-02-17T22:37:46.242Z,14.67
2019-02-17T22:42:48.254Z,16.60
2019-02-17T22:47:49.797Z,15.20
2019-02-17T22:52:51.529Z,15.30
2019-02-17T22:57:53.143Z,15.87
2019-02-17T23:02:55.218Z,14.40
2019-02-17T23:07:57.338Z,14.63
2019-02-17T23:12:58.978Z,14.60
2019-02-17T23:18:00.578Z,17.57
2019-02-17T23:23:02.647Z,18.53
2019-02-17T23:28:04.655Z,14.97
2019-02-17T23:33:06.215Z,15.53
2019-02-17T23:38:07.868Z,15.57
2019-02-17T23:43:09.465Z,15.30
2019-02-17T23:48:11.088Z,15.67
2019-02-17T23:53:12.657Z,15.47
2019-02-17T23:58:14.266Z,14.93
